Time,TemperatureF,DewpointF,PressureIn,WindDirection,WindDirectionDegrees,WindSpeedMPH,WindSpeedGustMPH,Humidity,HourlyPrecipIn,Conditions,Clouds,dailyrainin,SolarRadiationWatts/m^2,SoftwareType,DateUTC
2013-07-27 00:01:00,84.0,56.0,30.06,South,169,6.0,8.0,38,0.00,,,0.00,0.000000,,2013-07-27 07:01:00,
2013-07-27 00:12:00,83.0,55.0,30.05,South,169,6.0,9.0,39,0.00,,,0.00,0.000000,,2013-07-27 07:12:00,
2013-07-27 00:22:00,83.0,55.0,30.06,South,176,2.0,6.0,39,0.00,,,0.00,0.000000,,2013-07-27 07:22:00,
2013-07-27 00:33:00,83.0,57.0,30.06,South,179,6.0,11.0,41,0.00,,,0.00,0.000000,,2013-07-27 07:33:00,
2013-07-27 00:43:00,83.0,57.0,30.07,South,174,5.0,10.0,41,0.00,,,0.00,0.000000,,2013-07-27 07:43:00,
2013-07-27 00:52:00,82.0,57.0,30.05,SSE,167,4.0,7.0,42,0.00,,,0.00,0.000000,,2013-07-27 07:52:00,
2013-07-27 01:32:00,81.0,56.0,30.04,South,174,6.0,8.0,42,0.00,,,0.00,0.000000,,2013-07-27 08:32:00,
2013-07-27 01:43:00,81.0,56.0,30.04,South,182,1.0,7.0,42,0.00,,,0.00,0.000000,,2013-07-27 08:43:00,
2013-07-27 01:53:00,81.0,56.0,30.04,South,182,0.0,1.0,42,0.00,,,0.00,0.000000,,2013-07-27 08:53:00,
2013-07-27 02:01:00,81.0,56.0,30.04,South,182,0.0,2.0,42,0.00,,,0.00,0.000000,,2013-07-27 09:01:00,
2013-07-27 02:11:00,81.0,56.0,30.04,South,182,0.0,0.0,43,0.00,,,0.00,0.000000,,2013-07-27 09:11:00,
2013-07-27 02:44:00,80.0,55.0,30.04,ESE,113,1.0,4.0,43,0.00,,,0.00,0.000000,,2013-07-27 09:44:00,
2013-07-27 02:52:00,81.0,56.0,30.04,ESE,113,0.0,4.0,42,0.00,,,0.00,0.000000,,2013-07-27 09:52:00,
2013-07-27 03:11:00,81.0,55.0,30.04,ESE,115,5.0,6.0,41,0.00,,,0.00,0.000000,,2013-07-27 10:11:00,
2013-07-27 03:22:00,80.0,55.0,30.04,ESE,115,0.0,7.0,42,0.00,,,0.00,0.000000,,2013-07-27 10:22:00,
2013-07-27 03:32:00,80.0,55.0,30.04,ESE,115,2.0,4.0,42,0.00,,,0.00,0.000000,,2013-07-27 10:32:00,
2013-07-27 03:43:00,80.0,55.0,30.05,ESE,115,0.0,1.0,42,0.00,,,0.00,0.000000,,2013-07-27 10:43:00,
2013-07-27 03:52:00,80.0,55.0,30.05,ESE,115,1.0,2.0,42,0.00,,,0.00,0.000000,,2013-07-27 10:52:00,
2013-07-27 04:11:00,80.0,55.0,30.05,ESE,115,2.0,5.0,42,0.00,,,0.00,0.000000,,2013-07-27 11:11:00,
2013-07-27 04:22:00,80.0,55.0,30.05,ESE,115,4.0,5.0,43,0.00,,,0.00,0.000000,,2013-07-27 11:22:00,
2013-07-27 04:32:00,80.0,57.0,30.05,ESE,115,4.0,5.0,45,0.00,,,0.00,0.000000,,2013-07-27 11:32:00,
2013-07-27 04:43:00,80.0,57.0,30.05,ESE,115,4.0,5.0,45,0.00,,,0.00,0.000000,,2013-07-27 11:43:00,
2013-07-27 04:52:00,80.0,57.0,30.05,ESE,115,2.0,3.0,46,0.00,,,0.00,0.000000,,2013-07-27 11:52:00,
2013-07-27 05:02:00,80.0,57.0,30.05,ESE,115,0.0,3.0,46,0.00,,,0.00,0.000000,,2013-07-27 12:02:00,
2013-07-27 05:12:00,80.0,57.0,30.05,ESE,115,0.0,4.0,46,0.00,,,0.00,0.000000,,2013-07-27 12:12:00,
2013-07-27 05:22:00,80.0,57.0,30.05,ESE,115,2.0,4.0,46,0.00,,,0.00,0.000000,,2013-07-27 12:22:00,
2013-07-27 05:33:00,80.0,57.0,30.05,North,349,7.0,13.0,45,0.00,,,0.00,0.000000,,2013-07-27 12:33:00,
2013-07-27 05:43:00,81.0,59.0,30.06,NNW,333,9.0,15.0,47,0.00,,,0.00,0.000000,,2013-07-27 12:43:00,
2013-07-27 05:52:00,80.0,61.0,30.06,NNW,338,6.0,12.0,53,0.00,,,0.00,0.000000,,2013-07-27 12:52:00,
2013-07-27 06:02:00,79.0,64.0,30.06,NW,320,2.0,7.0,60,0.02,,,0.02,0.000000,,2013-07-27 13:02:00,
2013-07-27 06:44:00,74.0,64.0,30.08,North,360,5.0,9.0,71,0.05,,,0.05,0.000000,,2013-07-27 13:44:00,
2013-07-27 06:53:00,74.0,64.0,30.07,North,360,5.0,7.0,71,0.05,,,0.05,0.000000,,2013-07-27 13:53:00,
2013-07-27 07:02:00,74.0,63.0,30.07,North,360,12.0,15.0,69,0.03,,,0.05,11.000000,,2013-07-27 14:02:00,
2013-07-27 07:43:00,76.0,62.0,30.08,NW,322,12.0,20.0,63,0.00,,,0.05,97.000000,,2013-07-27 14:43:00,
2013-07-27 07:53:00,76.0,62.0,30.08,NNW,327,11.0,19.0,63,0.00,,,0.05,121.000000,,2013-07-27 14:53:00,
2013-07-27 08:11:00,77.0,63.0,30.08,NNW,346,12.0,17.0,62,0.00,,,0.05,151.000000,,2013-07-27 15:11:00,
2013-07-27 08:22:00,77.0,63.0,30.08,NNW,335,13.0,21.0,61,0.00,,,0.05,151.000000,,2013-07-27 15:22:00,
2013-07-27 08:33:00,77.0,62.0,30.08,NNW,338,12.0,20.0,60,0.00,,,0.05,297.000000,,2013-07-27 15:33:00,
2013-07-27 08:44:00,78.0,63.0,30.09,North,349,14.0,21.0,60,0.00,,,0.05,262.000000,,2013-07-27 15:44:00,
2013-07-27 08:53:00,78.0,63.0,30.09,North,360,14.0,18.0,60,0.00,,,0.05,295.000000,,2013-07-27 15:53:00,
2013-07-27 09:02:00,79.0,63.0,30.09,North,358,15.0,20.0,58,0.00,,,0.05,362.000000,,2013-07-27 16:02:00,
2013-07-27 09:43:00,81.0,61.0,30.09,North,358,14.0,20.0,50,0.00,,,0.05,352.000000,,2013-07-27 16:43:00,
2013-07-27 09:53:00,82.0,60.0,30.10,North,351,16.0,21.0,47,0.00,,,0.05,691.000000,,2013-07-27 16:53:00,
2013-07-27 10:02:00,84.0,60.0,30.10,NNW,334,16.0,20.0,45,0.00,,,0.05,691.000000,,2013-07-27 17:02:00,
2013-07-27 10:11:00,85.0,61.0,30.09,NNW,347,13.0,21.0,44,0.00,,,0.05,717.000000,,2013-07-27 17:11:00,
2013-07-27 10:32:00,85.0,59.0,30.09,North,360,15.0,19.0,41,0.00,,,0.05,838.000000,,2013-07-27 17:32:00,
2013-07-27 10:43:00,86.0,59.0,30.09,North,360,15.0,20.0,40,0.00,,,0.05,396.000000,,2013-07-27 17:43:00,
2013-07-27 10:53:00,86.0,57.0,30.09,North,1,14.0,19.0,38,0.00,,,0.05,954.000000,,2013-07-27 17:53:00,
2013-07-27 11:02:00,87.0,58.0,30.09,North,8,11.0,20.0,37,0.00,,,0.05,879.000000,,2013-07-27 18:02:00,
2013-07-27 11:11:00,88.0,58.0,30.08,North,360,16.0,20.0,36,0.00,,,0.05,1004.000000,,2013-07-27 18:11:00,
2013-07-27 11:42:00,88.0,57.0,30.08,North,3,9.0,17.0,35,0.00,,,0.05,401.000000,,2013-07-27 18:42:00,
2013-07-27 11:52:00,89.0,57.0,30.08,North,353,8.0,18.0,34,0.00,,,0.05,911.000000,,2013-07-27 18:52:00,
2013-07-27 12:02:00,88.0,57.0,30.08,NNE,12,6.0,16.0,35,0.00,,,0.05,612.000000,,2013-07-27 19:02:00,
2013-07-27 12:11:00,89.0,57.0,30.07,North,354,11.0,16.0,34,0.00,,,0.05,907.000000,,2013-07-27 19:11:00,
2013-07-27 12:32:00,89.0,58.0,30.06,North,360,8.0,14.0,35,0.00,,,0.05,480.000000,,2013-07-27 19:32:00,
2013-07-27 12:43:00,89.0,58.0,30.07,North,11,4.0,15.0,35,0.00,,,0.05,476.000000,,2013-07-27 19:43:00,
2013-07-27 12:52:00,89.0,57.0,30.07,NNW,335,7.0,10.0,34,0.00,,,0.05,540.000000,,2013-07-27 19:52:00,
2013-07-27 13:02:00,90.0,57.0,30.07,NNE,28,7.0,10.0,33,0.00,,,0.05,624.000000,,2013-07-27 20:02:00,
2013-07-27 13:11:00,90.0,56.0,30.06,West,262,1.0,10.0,32,0.00,,,0.05,1325.000000,,2013-07-27 20:11:00,
2013-07-27 13:32:00,91.0,56.0,30.05,NNE,30,5.0,13.0,31,0.00,,,0.05,911.000000,,2013-07-27 20:32:00,
2013-07-27 13:42:00,91.0,55.0,30.04,North,360,4.0,9.0,30,0.00,,,0.05,1067.000000,,2013-07-27 20:42:00,
2013-07-27 13:52:00,92.0,55.0,30.03,NW,307,3.0,11.0,29,0.00,,,0.05,1021.000000,,2013-07-27 20:52:00,
2013-07-27 14:01:00,94.0,56.0,30.03,West,266,4.0,7.0,28,0.00,,,0.05,1023.000000,,2013-07-27 21:01:00,
2013-07-27 14:11:00,95.0,57.0,30.02,NW,314,8.0,12.0,28,0.00,,,0.05,1072.000000,,2013-07-27 21:11:00,
2013-07-27 14:22:00,94.0,56.0,30.01,North,360,4.0,11.0,28,0.00,,,0.05,1120.000000,,2013-07-27 21:22:00,
2013-07-27 14:32:00,93.0,55.0,30.01,ENE,59,9.0,16.0,28,0.00,,,0.05,1109.000000,,2013-07-27 21:32:00,
2013-07-27 14:42:00,93.0,55.0,30.01,East,84,6.0,14.0,28,0.00,,,0.05,1137.000000,,2013-07-27 21:42:00,
2013-07-27 14:52:00,94.0,56.0,30.00,NNE,31,2.0,6.0,28,0.00,,,0.05,1158.000000,,2013-07-27 21:52:00,
2013-07-27 15:02:00,95.0,55.0,30.00,SSE,165,3.0,10.0,26,0.00,,,0.05,434.000000,,2013-07-27 22:02:00,
2013-07-27 15:12:00,95.0,55.0,29.99,ENE,58,4.0,6.0,26,0.00,,,0.05,601.000000,,2013-07-27 22:12:00,
2013-07-27 15:22:00,95.0,55.0,29.98,ESE,120,5.0,9.0,26,0.00,,,0.05,1044.000000,,2013-07-27 22:22:00,
2013-07-27 15:32:00,96.0,56.0,29.98,SE,124,1.0,4.0,26,0.00,,,0.05,911.000000,,2013-07-27 22:32:00,
2013-07-27 15:42:00,97.0,54.0,29.97,ESE,113,1.0,4.0,24,0.00,,,0.05,849.000000,,2013-07-27 22:42:00,
2013-07-27 15:53:00,97.0,55.0,29.96,ENE,69,2.0,6.0,25,0.00,,,0.05,793.000000,,2013-07-27 22:53:00,
2013-07-27 16:02:00,97.0,55.0,29.96,North,360,6.0,8.0,25,0.00,,,0.05,770.000000,,2013-07-27 23:02:00,
2013-07-27 16:11:00,95.0,55.0,29.95,East,89,7.0,12.0,26,0.00,,,0.05,738.000000,,2013-07-27 23:11:00,
2013-07-27 16:22:00,95.0,55.0,29.95,East,90,3.0,8.0,26,0.00,,,0.05,701.000000,,2013-07-27 23:22:00,
2013-07-27 16:32:00,96.0,56.0,29.95,NE,51,3.0,9.0,26,0.00,,,0.05,673.000000,,2013-07-27 23:32:00,
2013-07-27 16:43:00,96.0,54.0,29.94,North,358,0.0,5.0,25,0.00,,,0.05,647.000000,,2013-07-27 23:43:00,
2013-07-27 16:52:00,98.0,55.0,29.93,South,188,6.0,9.0,24,0.00,,,0.05,619.000000,,2013-07-27 23:52:00,
2013-07-27 17:02:00,99.0,55.0,29.93,SW,223,2.0,11.0,23,0.00,,,0.05,585.000000,,2013-07-28 00:02:00,
2013-07-27 17:22:00,97.0,54.0,29.91,NNE,19,3.0,6.0,24,0.00,,,0.05,526.000000,,2013-07-28 00:22:00,
2013-07-27 17:32:00,96.0,54.0,29.91,NNE,30,4.0,11.0,25,0.00,,,0.05,513.000000,,2013-07-28 00:32:00,
2013-07-27 17:43:00,96.0,54.0,29.92,ENE,77,2.0,7.0,25,0.00,,,0.05,473.000000,,2013-07-28 00:43:00,
2013-07-27 17:52:00,97.0,54.0,29.92,SSW,193,2.0,9.0,24,0.00,,,0.05,427.000000,,2013-07-28 00:52:00,
2013-07-27 18:02:00,98.0,54.0,29.92,East,83,5.0,6.0,23,0.00,,,0.05,394.000000,,2013-07-28 01:02:00,
2013-07-27 18:12:00,97.0,54.0,29.90,East,92,1.0,7.0,24,0.00,,,0.05,148.000000,,2013-07-28 01:12:00,
2013-07-27 18:22:00,96.0,53.0,29.90,East,82,1.0,7.0,24,0.00,,,0.05,70.000000,,2013-07-28 01:22:00,
2013-07-27 18:32:00,96.0,54.0,29.90,North,360,4.0,10.0,25,0.00,,,0.05,255.000000,,2013-07-28 01:32:00,
2013-07-27 18:43:00,96.0,53.0,29.91,WNW,297,1.0,9.0,24,0.00,,,0.05,320.000000,,2013-07-28 01:43:00,
2013-07-27 18:53:00,96.0,53.0,29.91,WNW,296,0.0,4.0,24,0.00,,,0.05,297.000000,,2013-07-28 01:53:00,
2013-07-27 19:02:00,97.0,53.0,29.91,South,176,4.0,5.0,23,0.00,,,0.05,248.000000,,2013-07-28 02:02:00,
2013-07-27 19:12:00,97.0,53.0,29.90,SW,223,2.0,9.0,23,0.00,,,0.05,181.000000,,2013-07-28 02:12:00,
2013-07-27 19:22:00,97.0,54.0,29.90,WSW,255,4.0,5.0,24,0.00,,,0.05,148.000000,,2013-07-28 02:22:00,
2013-07-27 19:32:00,96.0,53.0,29.90,SW,221,4.0,7.0,24,0.00,,,0.05,148.000000,,2013-07-28 02:32:00,
2013-07-27 19:42:00,96.0,54.0,29.90,WSW,248,2.0,7.0,25,0.00,,,0.05,118.000000,,2013-07-28 02:42:00,
2013-07-27 19:53:00,95.0,54.0,29.90,WSW,249,0.0,5.0,25,0.00,,,0.05,93.000000,,2013-07-28 02:53:00,
2013-07-27 20:02:00,94.0,54.0,29.90,East,85,7.0,16.0,26,0.00,,,0.05,65.000000,,2013-07-28 03:02:00,
2013-07-27 20:11:00,93.0,55.0,29.91,SE,141,6.0,16.0,28,0.00,,,0.05,30.000000,,2013-07-28 03:11:00,
2013-07-27 20:32:00,91.0,53.0,29.91,ESE,115,5.0,7.0,28,0.00,,,0.05,0.000000,,2013-07-28 03:32:00,
2013-07-27 20:42:00,90.0,55.0,29.91,SE,137,8.0,11.0,31,0.00,,,0.05,0.000000,,2013-07-28 03:42:00,
2013-07-27 20:52:00,89.0,55.0,29.89,SE,139,5.0,12.0,32,0.00,,,0.05,0.000000,,2013-07-28 03:52:00,
2013-07-27 21:11:00,89.0,52.0,29.89,SW,230,0.0,5.0,28,0.00,,,0.05,0.000000,,2013-07-28 04:11:00,
2013-07-27 21:22:00,89.0,52.0,29.89,SW,230,0.0,5.0,28,0.00,,,0.05,0.000000,,2013-07-28 04:22:00,
2013-07-27 21:42:00,88.0,54.0,29.92,SW,233,1.0,5.0,31,0.00,,,0.05,0.000000,,2013-07-28 04:42:00,
2013-07-27 21:53:00,88.0,54.0,29.92,SW,233,0.0,2.0,32,0.00,,,0.05,0.000000,,2013-07-28 04:53:00,
2013-07-27 22:02:00,87.0,54.0,29.92,NW,321,3.0,6.0,33,0.00,,,0.05,0.000000,,2013-07-28 05:02:00,
2013-07-27 22:12:00,87.0,56.0,29.93,North,358,6.0,8.0,35,0.00,,,0.05,0.000000,,2013-07-28 05:12:00,
2013-07-27 22:22:00,87.0,58.0,29.93,North,353,7.0,11.0,37,0.00,,,0.05,0.000000,,2013-07-28 05:22:00,
2013-07-27 22:43:00,86.0,57.0,29.92,NNW,338,7.0,11.0,38,0.00,,,0.05,0.000000,,2013-07-28 05:43:00,
2013-07-27 22:52:00,86.0,57.0,29.92,NNW,342,4.0,11.0,38,0.00,,,0.05,0.000000,,2013-07-28 05:52:00,
2013-07-27 23:02:00,86.0,57.0,29.92,NNW,327,3.0,9.0,37,0.00,,,0.05,0.000000,,2013-07-28 06:02:00,
2013-07-27 23:12:00,86.0,57.0,29.93,NNW,333,4.0,10.0,37,0.00,,,0.05,0.000000,,2013-07-28 06:12:00,
2013-07-27 23:22:00,86.0,57.0,29.93,NNW,333,4.0,10.0,37,0.00,,,0.05,0.000000,,2013-07-28 06:22:00,
2013-07-27 23:42:00,85.0,57.0,29.93,NW,307,2.0,7.0,39,0.00,,,0.05,0.000000,,2013-07-28 06:42:00,
2013-07-27 23:52:00,85.0,58.0,29.92,NW,306,3.0,4.0,40,0.00,,,0.05,0.000000,,2013-07-28 06:52:00,